createdAt,value
2022-11-17T10:56:55.558Z,62.92
2022-11-17T11:06:55.954Z,65.75
2022-11-17T11:16:55.793Z,67.44
2022-11-17T11:26:55.959Z,67.44
2022-11-17T11:36:56.184Z,68.25
2022-11-17T11:46:56.399Z,69.60
2022-11-17T11:56:56.506Z,69.91
2022-11-17T12:06:56.708Z,72.17
2022-11-17T12:16:56.963Z,69.03
2022-11-17T12:26:57.004Z,66.67
2022-11-17T12:36:57.431Z,65.12
2022-11-17T12:46:57.459Z,65.18
2022-11-17T12:56:57.565Z,64.27
2022-11-17T13:06:57.782Z,64.43
2022-11-17T13:16:57.893Z,66.49
2022-11-17T13:26:58.256Z,67.03
2022-11-17T13:36:58.261Z,68.52
2022-11-17T13:46:58.513Z,68.21
2022-11-17T13:56:58.487Z,65.13
2022-11-17T14:06:58.818Z,64.83
2022-11-17T14:16:58.816Z,65.57
2022-11-17T14:26:59.012Z,66.18
2022-11-17T14:36:59.662Z,64.83
2022-11-17T14:46:59.378Z,66.52
2022-11-17T14:56:59.640Z,66.96
2022-11-17T15:06:59.712Z,67.66
2022-11-17T15:16:59.840Z,68.31
2022-11-17T15:26:59.998Z,70.82
2022-11-17T15:37:00.191Z,72.82
2022-11-17T15:47:00.340Z,73.23
2022-11-17T15:57:00.570Z,78.68
2022-11-17T16:07:00.840Z,81.96
2022-11-17T16:17:01.170Z,84.15
2022-11-17T16:27:01.096Z,82.10
2022-11-17T16:37:01.417Z,77.25
2022-11-17T16:47:01.460Z,75.13
2022-11-17T16:57:01.977Z,74.08
2022-11-17T17:07:01.894Z,73.13
2022-11-17T17:17:02.237Z,72.89
2022-11-17T17:27:02.174Z,73.19
2022-11-17T17:37:02.474Z,72.69
2022-11-17T17:47:02.512Z,72.96
2022-11-17T17:57:03.030Z,73.26
2022-11-17T18:07:02.936Z,73.60
2022-11-17T18:17:03.074Z,74.52
2022-11-17T18:27:04.459Z,77.17
2022-11-17T18:37:03.435Z,75.23
2022-11-17T18:47:03.581Z,74.01
2022-11-17T18:57:03.809Z,73.77
2022-11-17T19:07:04.082Z,72.04
2022-11-17T19:17:04.115Z,74.58
2022-11-17T19:27:04.285Z,74.32
2022-11-17T19:37:04.504Z,75.37
2022-11-17T19:47:04.742Z,82.01
2022-11-17T19:57:05.196Z,88.27
2022-11-17T20:07:05.093Z,97.88
2022-11-17T20:17:05.205Z,99.99
2022-11-17T20:27:05.389Z,99.99
2022-11-17T20:37:05.621Z,99.99
2022-11-17T20:47:05.794Z,99.99
2022-11-17T20:57:06.023Z,99.99
2022-11-17T21:07:06.533Z,99.99
2022-11-17T21:17:06.457Z,99.99
2022-11-17T21:27:06.519Z,99.99
2022-11-17T21:37:06.749Z,99.99
2022-11-17T21:47:06.918Z,99.99
2022-11-17T21:57:07.246Z,99.99
2022-11-17T22:07:07.555Z,99.99
2022-11-17T22:17:07.519Z,99.99
2022-11-17T22:27:07.684Z,99.99
2022-11-17T22:37:07.908Z,99.99
2022-11-17T22:47:08.079Z,99.99
2022-11-17T22:57:08.322Z,99.99
2022-11-17T23:07:08.508Z,99.99
2022-11-17T23:17:08.728Z,99.99
2022-11-17T23:27:09.114Z,99.99
2022-11-17T23:37:09.129Z,99.99
2022-11-17T23:47:09.308Z,99.99
2022-11-17T23:57:09.437Z,99.99
